E. R. Santa Barbara — LXST — position and weather

sailwx.info

Track history (hours):
 
Tides and Currents Weather Stations Pressure Air Temp Water Temp Dewpoint Dewpoint Depression Visibility Wind Speed Wind Dir Waves Ship Positions

E. R. Santa Barbara

Last reported at 2020-Feb-15 02:00 UTC. Time now 2020-Feb-17 10:34 UTC.
Position N 39°09' W 009°52'.

Length 299 m; draft 13.5 m.

Type: Ship (hazmat cat A). MMSI: 253380000.

Date/timePositionNaut miles runAvg speedWind from/ knotsBaromVisibWave heightAir tempDewpointWater temp
2020-Feb-15 02:00N 39°09' W 009°52'2412.1
2020-Feb-15 00:00N 38°45' W 009°51'4212.0
2020-Feb-14 20:30N 38°04' W 009°40'1811.8
2020-Feb-14 19:00N 37°47' W 009°35'1212.0
2020-Feb-14 18:00N 37°35' W 009°32'611.8
2020-Feb-14 17:30N 37°29' W 009°30'1211.8
2020-Feb-14 16:30N 37°18' W 009°26'612.0
2020-Feb-14 16:00N 37°12' W 009°25'1912.0
2020-Feb-14 14:24N 36°53' W 009°19'4611.7
2020-Feb-14 10:30N 36°34' W 008°27'25 6.9
2020-Feb-14 06:51N 36°26' W 007°58'127 4.7
2020-Feb-13 03:38N 36°07' W 005°22'2 5.1
2020-Feb-13 03:19N 36°06' W 005°21'16 5.5
2020-Feb-13 00:31N 36°07' W 005°02'18 8.8
2020-Feb-12 22:30N 36°09' W 004°40'  
Track history (hours):
 
Tides and Currents Weather Stations Pressure Air Temp Water Temp Dewpoint Dewpoint Depression Visibility Wind Speed Wind Dir Waves Ship Positions

E. R. Santa Barbara

Last reported at 2020-Feb-15 02:00 UTC. Time now 2020-Feb-17 10:34 UTC.
Position N 39°09' W 009°52'.

Length 299 m; draft 13.5 m.

Type: Ship (hazmat cat A). MMSI: 253380000.

Date/timePositionNaut miles runAvg speedWind from/ knotsBaromVisibWave heightAir tempDewpointWater temp
2020-Feb-15 02:00N 39°09' W 009°52'2412.1
2020-Feb-15 00:00N 38°45' W 009°51'4212.0
2020-Feb-14 20:30N 38°04' W 009°40'1811.8
2020-Feb-14 19:00N 37°47' W 009°35'1212.0
2020-Feb-14 18:00N 37°35' W 009°32'611.8
2020-Feb-14 17:30N 37°29' W 009°30'1211.8
2020-Feb-14 16:30N 37°18' W 009°26'612.0
2020-Feb-14 16:00N 37°12' W 009°25'1912.0
2020-Feb-14 14:24N 36°53' W 009°19'4611.7
2020-Feb-14 10:30N 36°34' W 008°27'25 6.9
2020-Feb-14 06:51N 36°26' W 007°58'127 4.7
2020-Feb-13 03:38N 36°07' W 005°22'2 5.1
2020-Feb-13 03:19N 36°06' W 005°21'16 5.5
2020-Feb-13 00:31N 36°07' W 005°02'18 8.8
2020-Feb-12 22:30N 36°09' W 004°40'  

Dump ship's entire track history